<?xml version="1.0" encoding="UTF-8" standalone="no" ?>
<gpx xmlns="http://www.topografix.com/GPX/1/1" xmlns:xsi="http://www.w3.org/2001/XMLSchema-instance" xsi:schemaLocation="http://www.topografix.com/GPX/1/1 http://www.topografix.com/GPX/1/1/gpx.xsd" version="1.1" creator="VisuGPX - https://www.visugpx.com">
  <metadata>
    <name>randonnée gorge du verdon</name>
  </metadata>
  <wpt lat="45.59193" lon="0.70117">
    <ele>277.8</ele>
  </wpt>
  <wpt lat="45.65739" lon="0.55618">
    <ele>143.3</ele>
  </wpt>
  <wpt lat="45.63709" lon="0.85693">
    <ele>372.8</ele>
  </wpt>
  <wpt lat="45.73184" lon="0.86843">
    <ele>357.9</ele>
  </wpt>
  <wpt lat="45.79874" lon="1.03757">
    <ele>396.8</ele>
  </wpt>
  <wpt lat="45.7679" lon="0.77824">
    <ele>289.8</ele>
    <type><![CDATA[hotel]]></type>
  </wpt>
  <wpt lat="43.84808" lon="6.51102">
    <ele>732.8</ele>
  </wpt>
  <wpt lat="43.77962" lon="6.33969">
    <ele>936.7</ele>
  </wpt>
  <trk>
    <name><![CDATA[26oct 2020]]></name>
    <extensions>
      <line xmlns="http://www.topografix.com/GPX/gpx_style/0/2">
        <color>00ff00</color>
        <width>4</width>
      </line>
    </extensions>
    <trkseg>
      <trkpt lat="43.70033" lon="6.03916">
        <ele>372.7</ele>
      </trkpt>
      <trkpt lat="43.70082" lon="6.03996">
        <ele>370.9</ele>
      </trkpt>
      <trkpt lat="43.70134" lon="6.04074">
        <ele>373.9</ele>
      </trkpt>
      <trkpt lat="43.70163" lon="6.04033">
        <ele>377.1</ele>
      </trkpt>
      <trkpt lat="43.70179" lon="6.04055">
        <ele>379.1</ele>
      </trkpt>
      <trkpt lat="43.70198" lon="6.04056">
        <ele>376.421</ele>
        <time>2017-03-25T20:27:42Z</time>
      </trkpt>
      <trkpt lat="43.70239" lon="6.04156">
        <ele>372.308</ele>
        <time>2017-03-25T20:28:02Z</time>
      </trkpt>
      <trkpt lat="43.7024" lon="6.0419">
        <ele>370.83</ele>
        <time>2017-03-25T20:28:22Z</time>
      </trkpt>
      <trkpt lat="43.7022" lon="6.04202">
        <ele>370.062</ele>
        <time>2017-03-25T20:28:42Z</time>
      </trkpt>
      <trkpt lat="43.70238" lon="6.04227">
        <ele>370.674</ele>
        <time>2017-03-25T20:29:02Z</time>
      </trkpt>
      <trkpt lat="43.70268" lon="6.04318">
        <ele>370.397</ele>
        <time>2017-03-25T20:29:22Z</time>
      </trkpt>
      <trkpt lat="43.703" lon="6.04369">
        <ele>371.653</ele>
        <time>2017-03-25T20:29:42Z</time>
      </trkpt>
      <trkpt lat="43.70297" lon="6.04511">
        <ele>372.055</ele>
        <time>2017-03-25T20:30:02Z</time>
      </trkpt>
      <trkpt lat="43.70267" lon="6.04603">
        <ele>370.797</ele>
        <time>2017-03-25T20:30:22Z</time>
      </trkpt>
      <trkpt lat="43.70285" lon="6.04603">
        <ele>372.363</ele>
        <time>2017-03-25T20:30:42Z</time>
      </trkpt>
      <trkpt lat="43.70295" lon="6.0458">
        <ele>372.771</ele>
        <time>2017-03-25T20:31:02Z</time>
      </trkpt>
      <trkpt lat="43.70367" lon="6.04546">
        <ele>379.741</ele>
        <time>2017-03-25T20:31:22Z</time>
      </trkpt>
      <trkpt lat="43.7047" lon="6.04528">
        <ele>380.015</ele>
        <time>2017-03-25T20:31:42Z</time>
      </trkpt>
      <trkpt lat="43.70555" lon="6.04459">
        <ele>381.008</ele>
        <time>2017-03-25T20:32:02Z</time>
      </trkpt>
      <trkpt lat="43.70731" lon="6.04393">
        <ele>390.061</ele>
        <time>2017-03-25T20:32:22Z</time>
      </trkpt>
      <trkpt lat="43.70801" lon="6.04339">
        <ele>390.963</ele>
        <time>2017-03-25T20:32:42Z</time>
      </trkpt>
      <trkpt lat="43.70902" lon="6.0427">
        <ele>403.855</ele>
        <time>2017-03-25T20:33:02Z</time>
      </trkpt>
      <trkpt lat="43.7099" lon="6.04264">
        <ele>419.068</ele>
        <time>2017-03-25T20:33:22Z</time>
      </trkpt>
      <trkpt lat="43.7101" lon="6.04312">
        <ele>420.844</ele>
        <time>2017-03-25T20:33:42Z</time>
      </trkpt>
      <trkpt lat="43.71075" lon="6.04367">
        <ele>436.146</ele>
        <time>2017-03-25T20:34:02Z</time>
      </trkpt>
      <trkpt lat="43.71074" lon="6.04409">
        <ele>441.448</ele>
        <time>2017-03-25T20:34:22Z</time>
      </trkpt>
      <trkpt lat="43.71105" lon="6.04394">
        <ele>446.324</ele>
        <time>2017-03-25T20:34:42Z</time>
      </trkpt>
      <trkpt lat="43.71106" lon="6.04407">
        <ele>448.027</ele>
        <time>2017-03-25T20:35:02Z</time>
      </trkpt>
      <trkpt lat="43.71151" lon="6.04373">
        <ele>455.868</ele>
        <time>2017-03-25T20:35:22Z</time>
      </trkpt>
      <trkpt lat="43.71206" lon="6.04351">
        <ele>461.814</ele>
        <time>2017-03-25T20:35:42Z</time>
      </trkpt>
      <trkpt lat="43.71295" lon="6.04306">
        <ele>466.208</ele>
        <time>2017-03-25T20:36:02Z</time>
      </trkpt>
      <trkpt lat="43.71362" lon="6.04228">
        <ele>470.016</ele>
        <time>2017-03-25T20:36:22Z</time>
      </trkpt>
      <trkpt lat="43.71404" lon="6.04223">
        <ele>470.048</ele>
        <time>2017-03-25T20:36:42Z</time>
      </trkpt>
      <trkpt lat="43.71458" lon="6.0417">
        <ele>471.43</ele>
        <time>2017-03-25T20:37:02Z</time>
      </trkpt>
      <trkpt lat="43.71501" lon="6.04176">
        <ele>477.123</ele>
        <time>2017-03-25T20:37:22Z</time>
      </trkpt>
      <trkpt lat="43.71532" lon="6.04163">
        <ele>480.099</ele>
        <time>2017-03-25T20:37:42Z</time>
      </trkpt>
      <trkpt lat="43.71563" lon="6.04178">
        <ele>480.071</ele>
        <time>2017-03-25T20:38:02Z</time>
      </trkpt>
      <trkpt lat="43.71614" lon="6.04172">
        <ele>480.043</ele>
        <time>2017-03-25T20:38:22Z</time>
      </trkpt>
      <trkpt lat="43.7167" lon="6.04181">
        <ele>480.269</ele>
        <time>2017-03-25T20:38:42Z</time>
      </trkpt>
      <trkpt lat="43.71729" lon="6.04043">
        <ele>494.827</ele>
        <time>2017-03-25T20:39:02Z</time>
      </trkpt>
      <trkpt lat="43.71776" lon="6.03963">
        <ele>507.668</ele>
        <time>2017-03-25T20:39:22Z</time>
      </trkpt>
      <trkpt lat="43.71808" lon="6.03875">
        <ele>517.014</ele>
        <time>2017-03-25T20:39:42Z</time>
      </trkpt>
      <trkpt lat="43.71832" lon="6.0378">
        <ele>526.608</ele>
        <time>2017-03-25T20:40:02Z</time>
      </trkpt>
      <trkpt lat="43.71905" lon="6.03683">
        <ele>541.236</ele>
        <time>2017-03-25T20:40:22Z</time>
      </trkpt>
      <trkpt lat="43.71944" lon="6.03645">
        <ele>542.978</ele>
        <time>2017-03-25T20:40:42Z</time>
      </trkpt>
      <trkpt lat="43.71975" lon="6.03591">
        <ele>547.05</ele>
        <time>2017-03-25T20:41:02Z</time>
      </trkpt>
      <trkpt lat="43.72003" lon="6.03559">
        <ele>546.453</ele>
        <time>2017-03-25T20:41:22Z</time>
      </trkpt>
      <trkpt lat="43.72017" lon="6.03524">
        <ele>549.019</ele>
        <time>2017-03-25T20:41:42Z</time>
      </trkpt>
      <trkpt lat="43.72063" lon="6.03487">
        <ele>550.051</ele>
        <time>2017-03-25T20:42:02Z</time>
      </trkpt>
      <trkpt lat="43.72182" lon="6.03197">
        <ele>550.013</ele>
        <time>2017-03-25T20:42:22Z</time>
      </trkpt>
      <trkpt lat="43.72314" lon="6.03569">
        <ele>554.699</ele>
        <time>2017-03-25T20:42:42Z</time>
      </trkpt>
      <trkpt lat="43.72339" lon="6.03735">
        <ele>555.094</ele>
        <time>2017-03-25T20:43:02Z</time>
      </trkpt>
      <trkpt lat="43.72372" lon="6.03877">
        <ele>555.057</ele>
        <time>2017-03-25T20:43:22Z</time>
      </trkpt>
      <trkpt lat="43.72402" lon="6.04038">
        <ele>555.022</ele>
        <time>2017-03-25T20:43:42Z</time>
      </trkpt>
      <trkpt lat="43.72511" lon="6.04445">
        <ele>554.008</ele>
        <time>2017-03-25T20:44:02Z</time>
      </trkpt>
      <trkpt lat="43.72576" lon="6.04736">
        <ele>553.753</ele>
        <time>2017-03-25T20:44:22Z</time>
      </trkpt>
      <trkpt lat="43.72622" lon="6.04955">
        <ele>553.275</ele>
        <time>2017-03-25T20:44:42Z</time>
      </trkpt>
      <trkpt lat="43.72578" lon="6.05145">
        <ele>551.087</ele>
        <time>2017-03-25T20:45:02Z</time>
      </trkpt>
      <trkpt lat="43.72438" lon="6.05347">
        <ele>550.03</ele>
        <time>2017-03-25T20:45:22Z</time>
      </trkpt>
      <trkpt lat="43.72433" lon="6.05399">
        <ele>548.926</ele>
        <time>2017-03-25T20:45:42Z</time>
      </trkpt>
      <trkpt lat="43.72495" lon="6.05549">
        <ele>527.758</ele>
        <time>2017-03-25T20:46:02Z</time>
      </trkpt>
      <trkpt lat="43.72496" lon="6.05592">
        <ele>523.91</ele>
        <time>2017-03-25T20:46:22Z</time>
      </trkpt>
      <trkpt lat="43.7251" lon="6.05625">
        <ele>520.396</ele>
        <time>2017-03-25T20:46:42Z</time>
      </trkpt>
      <trkpt lat="43.72477" lon="6.05734">
        <ele>513.284</ele>
        <time>2017-03-25T20:47:02Z</time>
      </trkpt>
      <trkpt lat="43.72442" lon="6.05769">
        <ele>512.507</ele>
        <time>2017-03-25T20:47:22Z</time>
      </trkpt>
      <trkpt lat="43.72433" lon="6.05842">
        <ele>503.917</ele>
        <time>2017-03-25T20:47:42Z</time>
      </trkpt>
      <trkpt lat="43.72395" lon="6.05937">
        <ele>501.008</ele>
        <time>2017-03-25T20:48:02Z</time>
      </trkpt>
      <trkpt lat="43.72357" lon="6.05975">
        <ele>500.022</ele>
        <time>2017-03-25T20:48:22Z</time>
      </trkpt>
      <trkpt lat="43.72331" lon="6.0602">
        <ele>498.354</ele>
        <time>2017-03-25T20:48:42Z</time>
      </trkpt>
      <trkpt lat="43.72238" lon="6.06104">
        <ele>496.236</ele>
        <time>2017-03-25T20:49:02Z</time>
      </trkpt>
      <trkpt lat="43.72214" lon="6.06184">
        <ele>488.759</ele>
        <time>2017-03-25T20:49:22Z</time>
      </trkpt>
      <trkpt lat="43.72195" lon="6.06324">
        <ele>477.915</ele>
        <time>2017-03-25T20:49:42Z</time>
      </trkpt>
      <trkpt lat="43.72194" lon="6.06404">
        <ele>471.087</ele>
        <time>2017-03-25T20:50:02Z</time>
      </trkpt>
      <trkpt lat="43.72209" lon="6.06432">
        <ele>469.429</ele>
        <time>2017-03-25T20:50:22Z</time>
      </trkpt>
      <trkpt lat="43.72218" lon="6.06524">
        <ele>468.745</ele>
        <time>2017-03-25T20:50:42Z</time>
      </trkpt>
      <trkpt lat="43.72275" lon="6.06634">
        <ele>470.863</ele>
        <time>2017-03-25T20:51:02Z</time>
      </trkpt>
      <trkpt lat="43.72349" lon="6.06716">
        <ele>470.044</ele>
        <time>2017-03-25T20:51:22Z</time>
      </trkpt>
      <trkpt lat="43.72406" lon="6.06761">
        <ele>468.218</ele>
        <time>2017-03-25T20:51:42Z</time>
      </trkpt>
      <trkpt lat="43.72437" lon="6.06806">
        <ele>465.708</ele>
        <time>2017-03-25T20:52:02Z</time>
      </trkpt>
      <trkpt lat="43.72407" lon="6.06868">
        <ele>460.58</ele>
        <time>2017-03-25T20:52:22Z</time>
      </trkpt>
      <trkpt lat="43.72439" lon="6.06879">
        <ele>460.772</ele>
        <time>2017-03-25T20:52:42Z</time>
      </trkpt>
      <trkpt lat="43.7246" lon="6.06873">
        <ele>462.854</ele>
        <time>2017-03-25T20:53:02Z</time>
      </trkpt>
      <trkpt lat="43.72489" lon="6.06916">
        <ele>462.987</ele>
        <time>2017-03-25T20:53:22Z</time>
      </trkpt>
      <trkpt lat="43.72584" lon="6.07043">
        <ele>465.953</ele>
        <time>2017-03-25T20:53:42Z</time>
      </trkpt>
      <trkpt lat="43.726" lon="6.07">
        <ele>469.215</ele>
        <time>2017-03-25T20:54:02Z</time>
      </trkpt>
      <trkpt lat="43.72628" lon="6.0704">
        <ele>467.867</ele>
        <time>2017-03-25T20:54:22Z</time>
      </trkpt>
      <trkpt lat="43.72939" lon="6.07144">
        <ele>475.253</ele>
        <time>2017-03-25T20:54:42Z</time>
      </trkpt>
      <trkpt lat="43.73213" lon="6.07417">
        <ele>460.397</ele>
        <time>2017-03-25T20:55:02Z</time>
      </trkpt>
      <trkpt lat="43.73297" lon="6.07471">
        <ele>456.423</ele>
        <time>2017-03-25T20:55:22Z</time>
      </trkpt>
      <trkpt lat="43.73346" lon="6.07527">
        <ele>452.225</ele>
        <time>2017-03-25T20:55:42Z</time>
      </trkpt>
      <trkpt lat="43.73442" lon="6.07583">
        <ele>444.108</ele>
        <time>2017-03-25T20:56:02Z</time>
      </trkpt>
      <trkpt lat="43.73479" lon="6.07587">
        <ele>440.973</ele>
        <time>2017-03-25T20:56:22Z</time>
      </trkpt>
      <trkpt lat="43.7351" lon="6.07641">
        <ele>437.155</ele>
        <time>2017-03-25T20:56:42Z</time>
      </trkpt>
      <trkpt lat="43.73552" lon="6.07656">
        <ele>437.677</ele>
        <time>2017-03-25T20:57:02Z</time>
      </trkpt>
      <trkpt lat="43.73598" lon="6.0765">
        <ele>436.02</ele>
        <time>2017-03-25T20:57:22Z</time>
      </trkpt>
      <trkpt lat="43.73622" lon="6.07701">
        <ele>433.496</ele>
        <time>2017-03-25T20:57:42Z</time>
      </trkpt>
      <trkpt lat="43.73595" lon="6.07757">
        <ele>430.138</ele>
        <time>2017-03-25T20:58:02Z</time>
      </trkpt>
      <trkpt lat="43.73583" lon="6.07826">
        <ele>426.42</ele>
        <time>2017-03-25T20:58:22Z</time>
      </trkpt>
      <trkpt lat="43.73599" lon="6.07983">
        <ele>416.486</ele>
        <time>2017-03-25T20:58:42Z</time>
      </trkpt>
      <trkpt lat="43.73654" lon="6.08095">
        <ele>411.685</ele>
        <time>2017-03-25T20:59:02Z</time>
      </trkpt>
      <trkpt lat="43.73705" lon="6.08145">
        <ele>408.089</ele>
        <time>2017-03-25T20:59:22Z</time>
      </trkpt>
      <trkpt lat="43.73772" lon="6.08149">
        <ele>408.817</ele>
        <time>2017-03-25T20:59:42Z</time>
      </trkpt>
      <trkpt lat="43.73815" lon="6.08121">
        <ele>408.608</ele>
        <time>2017-03-25T21:00:02Z</time>
      </trkpt>
      <trkpt lat="43.73834" lon="6.08073">
        <ele>409.022</ele>
        <time>2017-03-25T21:00:22Z</time>
      </trkpt>
      <trkpt lat="43.73842" lon="6.07938">
        <ele>409.064</ele>
        <time>2017-03-25T21:00:42Z</time>
      </trkpt>
      <trkpt lat="43.73865" lon="6.07869">
        <ele>408.946</ele>
        <time>2017-03-25T21:01:02Z</time>
      </trkpt>
      <trkpt lat="43.73911" lon="6.07839">
        <ele>412.039</ele>
        <time>2017-03-25T21:01:22Z</time>
      </trkpt>
      <trkpt lat="43.73948" lon="6.07695">
        <ele>416.185</ele>
        <time>2017-03-25T21:01:42Z</time>
      </trkpt>
      <trkpt lat="43.73979" lon="6.07695">
        <ele>412.097</ele>
        <time>2017-03-25T21:02:02Z</time>
      </trkpt>
      <trkpt lat="43.74028" lon="6.07776">
        <ele>419.279</ele>
        <time>2017-03-25T21:02:22Z</time>
      </trkpt>
      <trkpt lat="43.74167" lon="6.07721">
        <ele>415.265</ele>
        <time>2017-03-25T21:02:42Z</time>
      </trkpt>
      <trkpt lat="43.74214" lon="6.07751">
        <ele>407.617</ele>
        <time>2017-03-25T21:03:02Z</time>
      </trkpt>
      <trkpt lat="43.74264" lon="6.07746">
        <ele>414.387</ele>
        <time>2017-03-25T21:03:22Z</time>
      </trkpt>
      <trkpt lat="43.74303" lon="6.07824">
        <ele>408.015</ele>
        <time>2017-03-25T21:03:42Z</time>
      </trkpt>
      <trkpt lat="43.74341" lon="6.07841">
        <ele>408.908</ele>
        <time>2017-03-25T21:04:02Z</time>
      </trkpt>
      <trkpt lat="43.74395" lon="6.07817">
        <ele>406.525</ele>
        <time>2017-03-25T21:04:22Z</time>
      </trkpt>
      <trkpt lat="43.74432" lon="6.07835">
        <ele>408.097</ele>
        <time>2017-03-25T21:04:42Z</time>
      </trkpt>
      <trkpt lat="43.74445" lon="6.07921">
        <ele>408.719</ele>
        <time>2017-03-25T21:05:02Z</time>
      </trkpt>
      <trkpt lat="43.74521" lon="6.08033">
        <ele>406.062</ele>
        <time>2017-03-25T21:05:22Z</time>
      </trkpt>
      <trkpt lat="43.74565" lon="6.0803">
        <ele>408.978</ele>
        <time>2017-03-25T21:05:42Z</time>
      </trkpt>
      <trkpt lat="43.74584" lon="6.08114">
        <ele>409.94</ele>
        <time>2017-03-25T21:06:02Z</time>
      </trkpt>
      <trkpt lat="43.74639" lon="6.08179">
        <ele>409.212</ele>
        <time>2017-03-25T21:06:22Z</time>
      </trkpt>
      <trkpt lat="43.74599" lon="6.08237">
        <ele>407.518</ele>
        <time>2017-03-25T21:06:42Z</time>
      </trkpt>
      <trkpt lat="43.74607" lon="6.08284">
        <ele>406.188</ele>
        <time>2017-03-25T21:07:02Z</time>
      </trkpt>
      <trkpt lat="43.74654" lon="6.08321">
        <ele>408.824</ele>
        <time>2017-03-25T21:07:22Z</time>
      </trkpt>
      <trkpt lat="43.74658" lon="6.0836">
        <ele>408.126</ele>
        <time>2017-03-25T21:07:42Z</time>
      </trkpt>
      <trkpt lat="43.74598" lon="6.08416">
        <ele>408.508</ele>
        <time>2017-03-25T21:08:02Z</time>
      </trkpt>
      <trkpt lat="43.74588" lon="6.08482">
        <ele>413.762</ele>
        <time>2017-03-25T21:08:22Z</time>
      </trkpt>
      <trkpt lat="43.74616" lon="6.08532">
        <ele>417.474</ele>
        <time>2017-03-25T21:08:42Z</time>
      </trkpt>
      <trkpt lat="43.74676" lon="6.08549">
        <ele>423.916</ele>
        <time>2017-03-25T21:09:02Z</time>
      </trkpt>
      <trkpt lat="43.74737" lon="6.08508">
        <ele>427.259</ele>
        <time>2017-03-25T21:09:22Z</time>
      </trkpt>
      <trkpt lat="43.74772" lon="6.08513">
        <ele>427.015</ele>
        <time>2017-03-25T21:09:42Z</time>
      </trkpt>
      <trkpt lat="43.74799" lon="6.08562">
        <ele>430.227</ele>
        <time>2017-03-25T21:10:02Z</time>
      </trkpt>
      <trkpt lat="43.74874" lon="6.0859">
        <ele>442.919</ele>
        <time>2017-03-25T21:10:22Z</time>
      </trkpt>
      <trkpt lat="43.74911" lon="6.08553">
        <ele>448.355</ele>
        <time>2017-03-25T21:10:42Z</time>
      </trkpt>
      <trkpt lat="43.74944" lon="6.08556">
        <ele>453.258</ele>
        <time>2017-03-25T21:11:02Z</time>
      </trkpt>
      <trkpt lat="43.75015" lon="6.08605">
        <ele>460.952</ele>
        <time>2017-03-25T21:11:22Z</time>
      </trkpt>
      <trkpt lat="43.75082" lon="6.0862">
        <ele>468.417</ele>
        <time>2017-03-25T21:11:42Z</time>
      </trkpt>
      <trkpt lat="43.75044" lon="6.0868">
        <ele>463.308</ele>
        <time>2017-03-25T21:12:02Z</time>
      </trkpt>
      <trkpt lat="43.75005" lon="6.08723">
        <ele>454.789</ele>
        <time>2017-03-25T21:12:22Z</time>
      </trkpt>
      <trkpt lat="43.74966" lon="6.08894">
        <ele>452.141</ele>
        <time>2017-03-25T21:12:42Z</time>
      </trkpt>
      <trkpt lat="43.74961" lon="6.08939">
        <ele>449.793</ele>
        <time>2017-03-25T21:13:02Z</time>
      </trkpt>
      <trkpt lat="43.74925" lon="6.08999">
        <ele>447.436</ele>
        <time>2017-03-25T21:13:22Z</time>
      </trkpt>
      <trkpt lat="43.74923" lon="6.09064">
        <ele>445.462</ele>
        <time>2017-03-25T21:13:42Z</time>
      </trkpt>
      <trkpt lat="43.74907" lon="6.09134">
        <ele>437.764</ele>
        <time>2017-03-25T21:14:02Z</time>
      </trkpt>
      <trkpt lat="43.74857" lon="6.09147">
        <ele>429.796</ele>
        <time>2017-03-25T21:14:22Z</time>
      </trkpt>
      <trkpt lat="43.74816" lon="6.09122">
        <ele>426.192</ele>
        <time>2017-03-25T21:14:42Z</time>
      </trkpt>
      <trkpt lat="43.74786" lon="6.09154">
        <ele>423.362</ele>
        <time>2017-03-25T21:15:02Z</time>
      </trkpt>
      <trkpt lat="43.74786" lon="6.09205">
        <ele>426.083</ele>
        <time>2017-03-25T21:15:22Z</time>
      </trkpt>
      <trkpt lat="43.74816" lon="6.09285">
        <ele>431.111</ele>
        <time>2017-03-25T21:15:42Z</time>
      </trkpt>
      <trkpt lat="43.74797" lon="6.09345">
        <ele>431.808</ele>
        <time>2017-03-25T21:16:02Z</time>
      </trkpt>
      <trkpt lat="43.74797" lon="6.09397">
        <ele>433.62</ele>
        <time>2017-03-25T21:16:22Z</time>
      </trkpt>
      <trkpt lat="43.74816" lon="6.09509">
        <ele>437.782</ele>
        <time>2017-03-25T21:16:42Z</time>
      </trkpt>
      <trkpt lat="43.74842" lon="6.09558">
        <ele>440.674</ele>
        <time>2017-03-25T21:17:02Z</time>
      </trkpt>
      <trkpt lat="43.74866" lon="6.0963">
        <ele>443.977</ele>
        <time>2017-03-25T21:17:22Z</time>
      </trkpt>
      <trkpt lat="43.74904" lon="6.09701">
        <ele>443.063</ele>
        <time>2017-03-25T21:17:42Z</time>
      </trkpt>
      <trkpt lat="43.74939" lon="6.09756">
        <ele>441.475</ele>
        <time>2017-03-25T21:18:02Z</time>
      </trkpt>
      <trkpt lat="43.74907" lon="6.09772">
        <ele>440.047</ele>
        <time>2017-03-25T21:18:22Z</time>
      </trkpt>
      <trkpt lat="43.74911" lon="6.09849">
        <ele>440.193</ele>
        <time>2017-03-25T21:18:42Z</time>
      </trkpt>
      <trkpt lat="43.74952" lon="6.09909">
        <ele>447.915</ele>
        <time>2017-03-25T21:19:02Z</time>
      </trkpt>
      <trkpt lat="43.74813" lon="6.09993">
        <ele>437.165</ele>
        <time>2017-03-25T21:19:22Z</time>
      </trkpt>
      <trkpt lat="43.7467" lon="6.10038">
        <ele>424.611</ele>
        <time>2017-03-25T21:19:42Z</time>
      </trkpt>
      <trkpt lat="43.74705" lon="6.10096">
        <ele>422.908</ele>
        <time>2017-03-25T21:20:02Z</time>
      </trkpt>
      <trkpt lat="43.74693" lon="6.10127">
        <ele>421.915</ele>
        <time>2017-03-25T21:20:22Z</time>
      </trkpt>
      <trkpt lat="43.74692" lon="6.10189">
        <ele>426.987</ele>
        <time>2017-03-25T21:20:42Z</time>
      </trkpt>
      <trkpt lat="43.74661" lon="6.10359">
        <ele>412.039</ele>
        <time>2017-03-25T21:21:02Z</time>
      </trkpt>
      <trkpt lat="43.74688" lon="6.10516">
        <ele>408.352</ele>
        <time>2017-03-25T21:21:22Z</time>
      </trkpt>
      <trkpt lat="43.74688" lon="6.10637">
        <ele>405.698</ele>
        <time>2017-03-25T21:21:42Z</time>
      </trkpt>
      <trkpt lat="43.74704" lon="6.10669">
        <ele>407.24</ele>
        <time>2017-03-25T21:22:02Z</time>
      </trkpt>
      <trkpt lat="43.74853" lon="6.10721">
        <ele>409.652</ele>
        <time>2017-03-25T21:22:22Z</time>
      </trkpt>
      <trkpt lat="43.74969" lon="6.10804">
        <ele>407.888</ele>
        <time>2017-03-25T21:22:42Z</time>
      </trkpt>
      <trkpt lat="43.75037" lon="6.10818">
        <ele>410.821</ele>
        <time>2017-03-25T21:23:02Z</time>
      </trkpt>
      <trkpt lat="43.7506" lon="6.10846">
        <ele>413.141</ele>
        <time>2017-03-25T21:23:22Z</time>
      </trkpt>
      <trkpt lat="43.75098" lon="6.10871">
        <ele>419.805</ele>
        <time>2017-03-25T21:23:42Z</time>
      </trkpt>
      <trkpt lat="43.75109" lon="6.10931">
        <ele>423.808</ele>
        <time>2017-03-25T21:24:02Z</time>
      </trkpt>
      <trkpt lat="43.75135" lon="6.10959">
        <ele>426.036</ele>
        <time>2017-03-25T21:24:22Z</time>
      </trkpt>
      <trkpt lat="43.75129" lon="6.11009">
        <ele>422.078</ele>
        <time>2017-03-25T21:24:42Z</time>
      </trkpt>
      <trkpt lat="43.75098" lon="6.11009">
        <ele>421.03</ele>
        <time>2017-03-25T21:25:02Z</time>
      </trkpt>
      <trkpt lat="43.75079" lon="6.11041">
        <ele>426.093</ele>
        <time>2017-03-25T21:25:22Z</time>
      </trkpt>
      <trkpt lat="43.75102" lon="6.11056">
        <ele>426.789</ele>
        <time>2017-03-25T21:25:42Z</time>
      </trkpt>
      <trkpt lat="43.75105" lon="6.11108">
        <ele>433.361</ele>
        <time>2017-03-25T21:26:02Z</time>
      </trkpt>
      <trkpt lat="43.75006" lon="6.11181">
        <ele>447.383</ele>
        <time>2017-03-25T21:26:22Z</time>
      </trkpt>
      <trkpt lat="43.74996" lon="6.11231">
        <ele>452.159</ele>
        <time>2017-03-25T21:26:42Z</time>
      </trkpt>
      <trkpt lat="43.74944" lon="6.11289">
        <ele>459.876</ele>
        <time>2017-03-25T21:27:02Z</time>
      </trkpt>
      <trkpt lat="43.7489" lon="6.1131">
        <ele>463.19</ele>
        <time>2017-03-25T21:27:22Z</time>
      </trkpt>
      <trkpt lat="43.74893" lon="6.11556">
        <ele>473.219</ele>
        <time>2017-03-25T21:27:42Z</time>
      </trkpt>
      <trkpt lat="43.74886" lon="6.11607">
        <ele>478.108</ele>
        <time>2017-03-25T21:28:02Z</time>
      </trkpt>
      <trkpt lat="43.74897" lon="6.11667">
        <ele>480.951</ele>
        <time>2017-03-25T21:28:22Z</time>
      </trkpt>
      <trkpt lat="43.74958" lon="6.11814">
        <ele>488.433</ele>
        <time>2017-03-25T21:28:42Z</time>
      </trkpt>
      <trkpt lat="43.74989" lon="6.11917">
        <ele>493.835</ele>
        <time>2017-03-25T21:29:02Z</time>
      </trkpt>
      <trkpt lat="43.75056" lon="6.12206">
        <ele>494.448</ele>
        <time>2017-03-25T21:29:22Z</time>
      </trkpt>
      <trkpt lat="43.75071" lon="6.12358">
        <ele>498.284</ele>
        <time>2017-03-25T21:29:42Z</time>
      </trkpt>
      <trkpt lat="43.75052" lon="6.1241">
        <ele>501.656</ele>
        <time>2017-03-25T21:30:02Z</time>
      </trkpt>
      <trkpt lat="43.75054" lon="6.12466">
        <ele>504.738</ele>
        <time>2017-03-25T21:30:22Z</time>
      </trkpt>
      <trkpt lat="43.75062" lon="6.12505">
        <ele>509.234</ele>
        <time>2017-03-25T21:30:42Z</time>
      </trkpt>
      <trkpt lat="43.75047" lon="6.12571">
        <ele>510.764</ele>
        <time>2017-03-25T21:31:02Z</time>
      </trkpt>
      <trkpt lat="43.75021" lon="6.1263">
        <ele>516.306</ele>
        <time>2017-03-25T21:31:22Z</time>
      </trkpt>
      <trkpt lat="43.7501" lon="6.1269">
        <ele>521.916</ele>
        <time>2017-03-25T21:31:42Z</time>
      </trkpt>
      <trkpt lat="43.7501" lon="6.1275">
        <ele>526.408</ele>
        <time>2017-03-25T21:32:02Z</time>
      </trkpt>
      <trkpt lat="43.74978" lon="6.12838">
        <ele>529.01</ele>
        <time>2017-03-25T21:32:22Z</time>
      </trkpt>
      <trkpt lat="43.74981" lon="6.13176">
        <ele>508.572</ele>
        <time>2017-03-25T21:32:42Z</time>
      </trkpt>
      <trkpt lat="43.74958" lon="6.13348">
        <ele>504.884</ele>
        <time>2017-03-25T21:33:02Z</time>
      </trkpt>
      <trkpt lat="43.7489" lon="6.13436">
        <ele>482.967</ele>
        <time>2017-03-25T21:33:22Z</time>
      </trkpt>
      <trkpt lat="43.74893" lon="6.13533">
        <ele>488.423</ele>
        <time>2017-03-25T21:33:42Z</time>
      </trkpt>
      <trkpt lat="43.74877" lon="6.13639">
        <ele>487.225</ele>
        <time>2017-03-25T21:34:02Z</time>
      </trkpt>
      <trkpt lat="43.74889" lon="6.13682">
        <ele>489.957</ele>
        <time>2017-03-25T21:34:22Z</time>
      </trkpt>
      <trkpt lat="43.74938" lon="6.13727">
        <ele>495.383</ele>
        <time>2017-03-25T21:34:42Z</time>
      </trkpt>
      <trkpt lat="43.74917" lon="6.13746">
        <ele>491.283</ele>
        <time>2017-03-25T21:35:02Z</time>
      </trkpt>
      <trkpt lat="43.74955" lon="6.13774">
        <ele>490.625</ele>
        <time>2017-03-25T21:35:22Z</time>
      </trkpt>
      <trkpt lat="43.75001" lon="6.13787">
        <ele>488.217</ele>
        <time>2017-03-25T21:35:42Z</time>
      </trkpt>
      <trkpt lat="43.7502" lon="6.13776">
        <ele>486.708</ele>
        <time>2017-03-25T21:36:02Z</time>
      </trkpt>
      <trkpt lat="43.75046" lon="6.13719">
        <ele>487.952</ele>
        <time>2017-03-25T21:36:22Z</time>
      </trkpt>
      <trkpt lat="43.75105" lon="6.13673">
        <ele>486.474</ele>
        <time>2017-03-25T21:36:42Z</time>
      </trkpt>
      <trkpt lat="43.7514" lon="6.13667">
        <ele>483.876</ele>
        <time>2017-03-25T21:37:02Z</time>
      </trkpt>
      <trkpt lat="43.75213" lon="6.13585">
        <ele>482.389</ele>
        <time>2017-03-25T21:37:22Z</time>
      </trkpt>
      <trkpt lat="43.75217" lon="6.13548">
        <ele>485.165</ele>
        <time>2017-03-25T21:37:42Z</time>
      </trkpt>
      <trkpt lat="43.7528" lon="6.1349">
        <ele>486.927</ele>
        <time>2017-03-25T21:38:02Z</time>
      </trkpt>
      <trkpt lat="43.75317" lon="6.13434">
        <ele>490.519</ele>
        <time>2017-03-25T21:38:22Z</time>
      </trkpt>
      <trkpt lat="43.75342" lon="6.13471">
        <ele>482.275</ele>
        <time>2017-03-25T21:38:42Z</time>
      </trkpt>
      <trkpt lat="43.75399" lon="6.13441">
        <ele>482.668</ele>
        <time>2017-03-25T21:39:02Z</time>
      </trkpt>
      <trkpt lat="43.75468" lon="6.13456">
        <ele>479.542</ele>
        <time>2017-03-25T21:39:22Z</time>
      </trkpt>
      <trkpt lat="43.75472" lon="6.13521">
        <ele>479.026</ele>
        <time>2017-03-25T21:39:42Z</time>
      </trkpt>
      <trkpt lat="43.75471" lon="6.13572">
        <ele>479.008</ele>
        <time>2017-03-25T21:40:02Z</time>
      </trkpt>
      <trkpt lat="43.75491" lon="6.13581">
        <ele>479.77</ele>
        <time>2017-03-25T21:40:22Z</time>
      </trkpt>
      <trkpt lat="43.75608" lon="6.13697">
        <ele>496.962</ele>
        <time>2017-03-25T21:40:42Z</time>
      </trkpt>
      <trkpt lat="43.75637" lon="6.13772">
        <ele>501.844</ele>
        <time>2017-03-25T21:41:02Z</time>
      </trkpt>
      <trkpt lat="43.75697" lon="6.13828">
        <ele>510.417</ele>
        <time>2017-03-25T21:41:22Z</time>
      </trkpt>
      <trkpt lat="43.7573" lon="6.13856">
        <ele>516.613</ele>
        <time>2017-03-25T21:41:42Z</time>
      </trkpt>
      <trkpt lat="43.7578" lon="6.13946">
        <ele>524.615</ele>
        <time>2017-03-25T21:42:02Z</time>
      </trkpt>
      <trkpt lat="43.75828" lon="6.13962">
        <ele>537.637</ele>
        <time>2017-03-25T21:42:22Z</time>
      </trkpt>
      <trkpt lat="43.75829" lon="6.14011">
        <ele>538.543</ele>
        <time>2017-03-25T21:42:42Z</time>
      </trkpt>
      <trkpt lat="43.75805" lon="6.1405">
        <ele>535.338</ele>
        <time>2017-03-25T21:43:02Z</time>
      </trkpt>
      <trkpt lat="43.7581" lon="6.141">
        <ele>543.17</ele>
        <time>2017-03-25T21:43:22Z</time>
      </trkpt>
      <trkpt lat="43.75789" lon="6.14104">
        <ele>552.017</ele>
        <time>2017-03-25T21:43:42Z</time>
      </trkpt>
      <trkpt lat="43.75874" lon="6.14284">
        <ele>565.308</ele>
        <time>2017-03-25T21:44:02Z</time>
      </trkpt>
      <trkpt lat="43.75866" lon="6.14334">
        <ele>577.787</ele>
        <time>2017-03-25T21:44:22Z</time>
      </trkpt>
      <trkpt lat="43.75896" lon="6.14375">
        <ele>578.479</ele>
        <time>2017-03-25T21:44:42Z</time>
      </trkpt>
      <trkpt lat="43.75916" lon="6.14437">
        <ele>588.751</ele>
        <time>2017-03-25T21:45:02Z</time>
      </trkpt>
      <trkpt lat="43.76067" lon="6.14543">
        <ele>625.674</ele>
        <time>2017-03-25T21:45:22Z</time>
      </trkpt>
      <trkpt lat="43.76075" lon="6.14523">
        <ele>626.87</ele>
        <time>2017-03-25T21:45:42Z</time>
      </trkpt>
      <trkpt lat="43.76084" lon="6.14526">
        <ele>630.032</ele>
        <time>2017-03-25T21:46:02Z</time>
      </trkpt>
      <trkpt lat="43.76114" lon="6.14631">
        <ele>630.424</ele>
        <time>2017-03-25T21:46:22Z</time>
      </trkpt>
      <trkpt lat="43.76138" lon="6.14696">
        <ele>630.92</ele>
        <time>2017-03-25T21:46:42Z</time>
      </trkpt>
      <trkpt lat="43.76223" lon="6.14723">
        <ele>635.063</ele>
        <time>2017-03-25T21:47:02Z</time>
      </trkpt>
      <trkpt lat="43.76263" lon="6.14767">
        <ele>635.844</ele>
        <time>2017-03-25T21:47:22Z</time>
      </trkpt>
      <trkpt lat="43.76302" lon="6.14787">
        <ele>634.318</ele>
        <time>2017-03-25T21:47:42Z</time>
      </trkpt>
      <trkpt lat="43.76284" lon="6.14796">
        <ele>634.108</ele>
        <time>2017-03-25T21:48:02Z</time>
      </trkpt>
      <trkpt lat="43.76239" lon="6.14784">
        <ele>631.36</ele>
        <time>2017-03-25T21:48:22Z</time>
      </trkpt>
      <trkpt lat="43.76223" lon="6.14751">
        <ele>632.982</ele>
        <time>2017-03-25T21:48:42Z</time>
      </trkpt>
      <trkpt lat="43.76153" lon="6.14753">
        <ele>621.114</ele>
        <time>2017-03-25T21:49:02Z</time>
      </trkpt>
      <trkpt lat="43.76164" lon="6.14769">
        <ele>614.837</ele>
        <time>2017-03-25T21:49:22Z</time>
      </trkpt>
      <trkpt lat="43.76147" lon="6.14805">
        <ele>604.543</ele>
        <time>2017-03-25T21:49:42Z</time>
      </trkpt>
      <trkpt lat="43.761" lon="6.14853">
        <ele>593.645</ele>
        <time>2017-03-25T21:50:02Z</time>
      </trkpt>
      <trkpt lat="43.76089" lon="6.14851">
        <ele>592.897</ele>
        <time>2017-03-25T21:50:22Z</time>
      </trkpt>
      <trkpt lat="43.76077" lon="6.14853">
        <ele>589.563</ele>
        <time>2017-03-25T21:50:42Z</time>
      </trkpt>
      <trkpt lat="43.76061" lon="6.14832">
        <ele>589.264</ele>
        <time>2017-03-25T21:51:02Z</time>
      </trkpt>
      <trkpt lat="43.76062" lon="6.14869">
        <ele>582.806</ele>
        <time>2017-03-25T21:51:22Z</time>
      </trkpt>
      <trkpt lat="43.76024" lon="6.14949">
        <ele>565.016</ele>
        <time>2017-03-25T21:51:42Z</time>
      </trkpt>
      <trkpt lat="43.76009" lon="6.14955">
        <ele>561.9</ele>
      </trkpt>
      <trkpt lat="43.76013" lon="6.14967">
        <ele>561.5</ele>
      </trkpt>
      <trkpt lat="43.75998" lon="6.15002">
        <ele>557.4</ele>
      </trkpt>
      <trkpt lat="43.75985" lon="6.15032">
        <ele>548.4</ele>
      </trkpt>
      <trkpt lat="43.75966" lon="6.15041">
        <ele>546.1</ele>
      </trkpt>
      <trkpt lat="43.75935" lon="6.15056">
        <ele>543.3</ele>
      </trkpt>
      <trkpt lat="43.75918" lon="6.15066">
        <ele>541.8</ele>
      </trkpt>
      <trkpt lat="43.75901" lon="6.15077">
        <ele>534</ele>
      </trkpt>
    </trkseg>
  </trk>
</gpx>